PWSweather.com
Personal Weather Stations
Station Observations
KMDSOLOM1
solomons, Solomons, MD 20688

solomonsSolomons, MD 20688

Lat: 38.32, Lon: -76.45

Elevation: 5

Station Type:

http://www.act-us.info/weather

High Low Average
Temperature 66.4°F19.1°C 51.3°F10.7°C 59.0°F15.0°C
Dew Point 49.9°F9.9°C 32.4°F0.2°C 44.0°F6.7°C
Winds 14.0 mph 22.5 kmh Calm Calm 4.0 mph SE6.4 kmh SE
Wind Gusts 17.0 mph27.4 kmh -- 6.0 mph9.7 kmh
Humidity 83% 31% 59%
Pressure 29.93 in1013.5 mb 29.67 in1004.7 mb -
Precipitation 0.00 in0.0 mm - -
Hour Temp Dew Point Humidity Winds Wind Gusts Pressure Precip Precip Rate Daily Precip Total
12:00 AM 65.5°F18.6°C 34.1°F1.2°C 31% 3.0 mph WSW4.8 kmh WSW 9.0 mph14.5 kmh 29.67 in1004.7 mb 0.00 in0.0 mm 0.00 in0.0 mm 0.00 in0.0 mm
12:05 AM 65.3°F18.5°C 34.7°F1.5°C 32% 8.0 mph WSW12.9 kmh WSW 9.0 mph14.5 kmh 29.67 in1004.7 mb 0.00 in0.0 mm 0.00 in0.0 mm 0.00 in0.0 mm
12:10 AM 65.1°F18.4°C 35.3°F1.8°C 33% 4.0 mph WSW6.4 kmh WSW 4.0 mph6.4 kmh 29.67 in1004.7 mb 0.00 in0.0 mm 0.00 in0.0 mm 0.00 in0.0 mm
12:15 AM 64.8°F18.2°C 35.1°F1.7°C 33% 2.0 mph WSW3.2 kmh WSW 9.0 mph14.5 kmh 29.67 in1004.7 mb 0.00 in0.0 mm 0.00 in0.0 mm 0.00 in0.0 mm
12:20 AM 64.6°F18.1°C 35.6°F2.0°C 34% 2.0 mph WSW3.2 kmh WSW 9.0 mph14.5 kmh 29.67 in1004.7 mb 0.00 in0.0 mm 0.00 in0.0 mm 0.00 in0.0 mm
12:25 AM 64.4°F18.0°C 35.5°F1.9°C 34% 5.0 mph WSW8.0 kmh WSW 5.0 mph8.0 kmh 29.67 in1004.7 mb 0.00 in0.0 mm 0.00 in0.0 mm 0.00 in0.0 mm
12:30 AM 64.0°F17.8°C 36.5°F2.5°C 36% 9.0 mph WSW14.5 kmh WSW 9.0 mph14.5 kmh 29.67 in1004.7 mb 0.00 in0.0 mm 0.00 in0.0 mm 0.00 in0.0 mm
12:35 AM 63.8°F17.7°C 34.2°F1.2°C 33% 7.0 mph W11.3 kmh W 11.0 mph17.7 kmh 29.67 in1004.7 mb 0.00 in0.0 mm 0.00 in0.0 mm 0.00 in0.0 mm
12:40 AM 63.8°F17.7°C 33.4°F0.8°C 32% 9.0 mph WSW14.5 kmh WSW 12.0 mph19.3 kmh 29.67 in1004.7 mb 0.00 in0.0 mm 0.00 in0.0 mm 0.00 in0.0 mm
12:45 AM 63.8°F17.7°C 33.4°F0.8°C 32% 6.0 mph WSW9.7 kmh WSW 12.0 mph19.3 kmh 29.68 in1005.1 mb 0.00 in0.0 mm 0.00 in0.0 mm 0.00 in0.0 mm
12:50 AM 63.8°F17.7°C 32.6°F0.3°C 31% 4.0 mph W6.4 kmh W 12.0 mph19.3 kmh 29.68 in1005.1 mb 0.00 in0.0 mm 0.00 in0.0 mm 0.00 in0.0 mm
12:55 AM 63.6°F17.6°C 32.4°F0.2°C 31% 3.0 mph W4.8 kmh W 6.0 mph9.7 kmh 29.68 in1005.1 mb 0.00 in0.0 mm 0.00 in0.0 mm 0.00 in0.0 mm
01:00 AM 63.5°F17.5°C 33.9°F1.1°C 33% 3.0 mph W4.8 kmh W 8.0 mph12.9 kmh 29.68 in1005.1 mb 0.00 in0.0 mm 0.00 in0.0 mm 0.00 in0.0 mm
01:05 AM 63.2°F17.3°C 33.6°F0.9°C 33% 6.0 mph W9.7 kmh W 8.0 mph12.9 kmh 29.68 in1005.1 mb 0.00 in0.0 mm 0.00 in0.0 mm 0.00 in0.0 mm
01:10 AM 62.9°F17.2°C 33.4°F0.8°C 33% 3.0 mph W4.8 kmh W 7.0 mph11.3 kmh 29.68 in1005.1 mb 0.00 in0.0 mm 0.00 in0.0 mm 0.00 in0.0 mm
01:15 AM 62.7°F17.1°C 34.0°F1.1°C 34% 10.0 mph W16.1 kmh W 11.0 mph17.7 kmh 29.68 in1005.1 mb 0.00 in0.0 mm 0.00 in0.0 mm 0.00 in0.0 mm
01:20 AM 62.4°F16.9°C 35.8°F2.1°C 37% 9.0 mph W14.5 kmh W 12.0 mph19.3 kmh 29.68 in1005.1 mb 0.00 in0.0 mm 0.00 in0.0 mm 0.00 in0.0 mm
01:25 AM 62.2°F16.8°C 35.6°F2.0°C 37% 2.0 mph W3.2 kmh W 4.0 mph6.4 kmh 29.69 in1005.4 mb 0.00 in0.0 mm 0.00 in0.0 mm 0.00 in0.0 mm
01:30 AM 61.9°F16.6°C 34.7°F1.5°C 36% 8.0 mph W12.9 kmh W 15.0 mph24.1 kmh 29.69 in1005.4 mb 0.00 in0.0 mm 0.00 in0.0 mm 0.00 in0.0 mm
01:35 AM 61.7°F16.5°C 37.8°F3.2°C 41% 4.0 mph WNW6.4 kmh WNW 15.0 mph24.1 kmh 29.70 in1005.8 mb 0.00 in0.0 mm 0.00 in0.0 mm 0.00 in0.0 mm
01:40 AM 61.3°F16.3°C 38.0°F3.3°C 42% 6.0 mph W9.7 kmh W 9.0 mph14.5 kmh 29.70 in1005.8 mb 0.00 in0.0 mm 0.00 in0.0 mm 0.00 in0.0 mm
01:45 AM 61.0°F16.1°C 39.0°F3.9°C 44% 5.0 mph WNW8.0 kmh WNW 15.0 mph24.1 kmh 29.71 in1006.1 mb 0.00 in0.0 mm 0.00 in0.0 mm 0.00 in0.0 mm
01:50 AM 60.7°F15.9°C 39.8°F4.3°C 46% 9.0 mph NW14.5 kmh NW 15.0 mph24.1 kmh 29.71 in1006.1 mb 0.00 in0.0 mm 0.00 in0.0 mm 0.00 in0.0 mm
01:55 AM 60.3°F15.7°C 40.0°F4.4°C 47% 8.0 mph W12.9 kmh W 10.0 mph16.1 kmh 29.71 in1006.1 mb 0.00 in0.0 mm 0.00 in0.0 mm 0.00 in0.0 mm
02:00 AM 60.0°F15.6°C 39.7°F4.3°C 47% 8.0 mph NW12.9 kmh NW 17.0 mph27.4 kmh 29.71 in1006.1 mb 0.00 in0.0 mm 0.00 in0.0 mm 0.00 in0.0 mm
02:05 AM 59.8°F15.4°C 40.1°F4.5°C 48% 7.0 mph NW11.3 kmh NW 17.0 mph27.4 kmh 29.72 in1006.4 mb 0.00 in0.0 mm 0.00 in0.0 mm 0.00 in0.0 mm
02:10 AM 59.6°F15.3°C 39.9°F4.4°C 48% 6.0 mph W9.7 kmh W 13.0 mph20.9 kmh 29.72 in1006.4 mb 0.00 in0.0 mm 0.00 in0.0 mm 0.00 in0.0 mm
02:15 AM 59.4°F15.2°C 39.7°F4.3°C 48% 8.0 mph NW12.9 kmh NW 13.0 mph20.9 kmh 29.72 in1006.4 mb 0.00 in0.0 mm 0.00 in0.0 mm 0.00 in0.0 mm
02:20 AM 59.2°F15.1°C 39.0°F3.9°C 47% 4.0 mph NW6.4 kmh NW 13.0 mph20.9 kmh 29.71 in1006.1 mb 0.00 in0.0 mm 0.00 in0.0 mm 0.00 in0.0 mm
02:25 AM 59.1°F15.1°C 40.0°F4.4°C 49% 2.0 mph NW3.2 kmh NW 3.0 mph4.8 kmh 29.72 in1006.4 mb 0.00 in0.0 mm 0.00 in0.0 mm 0.00 in0.0 mm
02:30 AM 59.0°F15.0°C 39.4°F4.1°C 48% Calm Calm 4.0 mph6.4 kmh 29.72 in1006.4 mb 0.00 in0.0 mm 0.00 in0.0 mm 0.00 in0.0 mm
02:35 AM 58.8°F14.9°C 40.2°F4.6°C 50% 4.0 mph WNW6.4 kmh WNW 7.0 mph11.3 kmh 29.72 in1006.4 mb 0.00 in0.0 mm 0.00 in0.0 mm 0.00 in0.0 mm
02:40 AM 58.6°F14.8°C 41.1°F5.1°C 52% 1.0 mph WNW1.6 kmh WNW 2.0 mph3.2 kmh 29.72 in1006.4 mb 0.00 in0.0 mm 0.00 in0.0 mm 0.00 in0.0 mm
02:45 AM 58.4°F14.7°C 40.9°F4.9°C 52% 5.0 mph WNW8.0 kmh WNW 8.0 mph12.9 kmh 29.72 in1006.4 mb 0.00 in0.0 mm 0.00 in0.0 mm 0.00 in0.0 mm
02:50 AM 58.2°F14.6°C 41.2°F5.1°C 53% 7.0 mph NW11.3 kmh NW 8.0 mph12.9 kmh 29.72 in1006.4 mb 0.00 in0.0 mm 0.00 in0.0 mm 0.00 in0.0 mm
02:55 AM 58.0°F14.4°C 41.5°F5.3°C 54% 4.0 mph WNW6.4 kmh WNW 4.0 mph6.4 kmh 29.73 in1006.8 mb 0.00 in0.0 mm 0.00 in0.0 mm 0.00 in0.0 mm
03:00 AM 57.8°F14.3°C 41.8°F5.4°C 55% 3.0 mph WNW4.8 kmh WNW 7.0 mph11.3 kmh 29.72 in1006.4 mb 0.00 in0.0 mm 0.00 in0.0 mm 0.00 in0.0 mm
03:05 AM 57.5°F14.2°C 41.0°F5.0°C 54% 3.0 mph WSW4.8 kmh WSW 8.0 mph12.9 kmh 29.73 in1006.8 mb 0.00 in0.0 mm 0.00 in0.0 mm 0.00 in0.0 mm
03:10 AM 57.4°F14.1°C 41.4°F5.2°C 55% 4.0 mph WSW6.4 kmh WSW 6.0 mph9.7 kmh 29.73 in1006.8 mb 0.00 in0.0 mm 0.00 in0.0 mm 0.00 in0.0 mm
03:15 AM 57.2°F14.0°C 40.2°F4.6°C 53% 6.0 mph W9.7 kmh W 8.0 mph12.9 kmh 29.73 in1006.8 mb 0.00 in0.0 mm 0.00 in0.0 mm 0.00 in0.0 mm
03:20 AM 57.1°F13.9°C 40.6°F4.8°C 54% 2.0 mph W3.2 kmh W 8.0 mph12.9 kmh 29.73 in1006.8 mb 0.00 in0.0 mm 0.00 in0.0 mm 0.00 in0.0 mm
03:25 AM 57.0°F13.9°C 40.5°F4.7°C 54% 6.0 mph W9.7 kmh W 6.0 mph9.7 kmh 29.73 in1006.8 mb 0.00 in0.0 mm 0.00 in0.0 mm 0.00 in0.0 mm
03:30 AM 56.8°F13.8°C 40.4°F4.7°C 54% 3.0 mph W4.8 kmh W 6.0 mph9.7 kmh 29.73 in1006.8 mb 0.00 in0.0 mm 0.00 in0.0 mm 0.00 in0.0 mm
03:35 AM 56.7°F13.7°C 40.7°F4.8°C 55% 4.0 mph W6.4 kmh W 6.0 mph9.7 kmh 29.73 in1006.8 mb 0.00 in0.0 mm 0.00 in0.0 mm 0.00 in0.0 mm
03:40 AM 56.6°F13.7°C 41.1°F5.1°C 56% 2.0 mph W3.2 kmh W 3.0 mph4.8 kmh 29.74 in1007.1 mb 0.00 in0.0 mm 0.00 in0.0 mm 0.00 in0.0 mm
03:45 AM 56.5°F13.6°C 41.0°F5.0°C 56% 1.0 mph W1.6 kmh W 4.0 mph6.4 kmh 29.74 in1007.1 mb 0.00 in0.0 mm 0.00 in0.0 mm 0.00 in0.0 mm
03:50 AM 56.3°F13.5°C 41.3°F5.2°C 57% 2.0 mph W3.2 kmh W 4.0 mph6.4 kmh 29.74 in1007.1 mb 0.00 in0.0 mm 0.00 in0.0 mm 0.00 in0.0 mm
03:55 AM 56.1°F13.4°C 41.5°F5.3°C 58% 1.0 mph W1.6 kmh W 3.0 mph4.8 kmh 29.74 in1007.1 mb 0.00 in0.0 mm 0.00 in0.0 mm 0.00 in0.0 mm
04:00 AM 55.9°F13.3°C 42.2°F5.7°C 60% 1.0 mph W1.6 kmh W 3.0 mph4.8 kmh 29.74 in1007.1 mb 0.00 in0.0 mm 0.00 in0.0 mm 0.00 in0.0 mm
04:05 AM 55.7°F13.2°C 42.0°F5.6°C 60% 6.0 mph W9.7 kmh W 6.0 mph9.7 kmh 29.74 in1007.1 mb 0.00 in0.0 mm 0.00 in0.0 mm 0.00 in0.0 mm
04:10 AM 55.5°F13.1°C 41.9°F5.5°C 60% 2.0 mph W3.2 kmh W 3.0 mph4.8 kmh 29.75 in1007.5 mb 0.00 in0.0 mm 0.00 in0.0 mm 0.00 in0.0 mm
04:15 AM 55.3°F12.9°C 42.1°F5.6°C 61% 2.0 mph W3.2 kmh W 4.0 mph6.4 kmh 29.74 in1007.1 mb 0.00 in0.0 mm 0.00 in0.0 mm 0.00 in0.0 mm
04:20 AM 55.2°F12.9°C 42.4°F5.8°C 62% 1.0 mph W1.6 kmh W 4.0 mph6.4 kmh 29.75 in1007.5 mb 0.00 in0.0 mm 0.00 in0.0 mm 0.00 in0.0 mm
04:25 AM 55.1°F12.8°C 42.3°F5.7°C 62% 1.0 mph W1.6 kmh W 1.0 mph1.6 kmh 29.75 in1007.5 mb 0.00 in0.0 mm 0.00 in0.0 mm 0.00 in0.0 mm
04:30 AM 54.9°F12.7°C 42.1°F5.6°C 62% Calm Calm 1.0 mph1.6 kmh 29.75 in1007.5 mb 0.00 in0.0 mm 0.00 in0.0 mm 0.00 in0.0 mm
04:35 AM 54.8°F12.7°C 42.5°F5.8°C 63% Calm Calm 1.0 mph1.6 kmh 29.75 in1007.5 mb 0.00 in0.0 mm 0.00 in0.0 mm 0.00 in0.0 mm
04:40 AM 54.6°F12.6°C 42.3°F5.7°C 63% Calm Calm -- 29.75 in1007.5 mb 0.00 in0.0 mm 0.00 in0.0 mm 0.00 in0.0 mm
04:45 AM 54.4°F12.4°C 42.1°F5.6°C 63% Calm Calm -- 29.75 in1007.5 mb 0.00 in0.0 mm 0.00 in0.0 mm 0.00 in0.0 mm
04:50 AM 54.1°F12.3°C 42.2°F5.7°C 64% 1.0 mph W1.6 kmh W 2.0 mph3.2 kmh 29.76 in1007.8 mb 0.00 in0.0 mm 0.00 in0.0 mm 0.00 in0.0 mm
04:55 AM 54.0°F12.2°C 42.9°F6.1°C 66% 2.0 mph W3.2 kmh W 2.0 mph3.2 kmh 29.76 in1007.8 mb 0.00 in0.0 mm 0.00 in0.0 mm 0.00 in0.0 mm
05:00 AM 53.9°F12.2°C 44.7°F7.1°C 71% 2.0 mph W3.2 kmh W 3.0 mph4.8 kmh 29.75 in1007.5 mb 0.00 in0.0 mm 0.00 in0.0 mm 0.00 in0.0 mm
05:05 AM 53.7°F12.1°C 45.3°F7.4°C 73% 2.0 mph W3.2 kmh W 4.0 mph6.4 kmh 29.76 in1007.8 mb 0.00 in0.0 mm 0.00 in0.0 mm 0.00 in0.0 mm
05:10 AM 53.4°F11.9°C 45.7°F7.6°C 75% 2.0 mph W3.2 kmh W 2.0 mph3.2 kmh 29.76 in1007.8 mb 0.00 in0.0 mm 0.00 in0.0 mm 0.00 in0.0 mm
05:15 AM 53.2°F11.8°C 45.8°F7.7°C 76% Calm Calm 2.0 mph3.2 kmh 29.76 in1007.8 mb 0.00 in0.0 mm 0.00 in0.0 mm 0.00 in0.0 mm
05:20 AM 53.0°F11.7°C 46.0°F7.8°C 77% 1.0 mph W1.6 kmh W 2.0 mph3.2 kmh 29.76 in1007.8 mb 0.00 in0.0 mm 0.00 in0.0 mm 0.00 in0.0 mm
05:25 AM 52.8°F11.6°C 45.5°F7.5°C 76% Calm Calm -- 29.76 in1007.8 mb 0.00 in0.0 mm 0.00 in0.0 mm 0.00 in0.0 mm
05:30 AM 52.5°F11.4°C 45.2°F7.3°C 76% Calm Calm 1.0 mph1.6 kmh 29.76 in1007.8 mb 0.00 in0.0 mm 0.00 in0.0 mm 0.00 in0.0 mm
05:35 AM 52.3°F11.3°C 45.0°F7.2°C 76% Calm Calm 1.0 mph1.6 kmh 29.77 in1008.1 mb 0.00 in0.0 mm 0.00 in0.0 mm 0.00 in0.0 mm
05:40 AM 52.0°F11.1°C 44.7°F7.1°C 76% 1.0 mph W1.6 kmh W 1.0 mph1.6 kmh 29.77 in1008.1 mb 0.00 in0.0 mm 0.00 in0.0 mm 0.00 in0.0 mm
05:45 AM 51.8°F11.0°C 44.8°F7.1°C 77% 1.0 mph W1.6 kmh W 2.0 mph3.2 kmh 29.77 in1008.1 mb 0.00 in0.0 mm 0.00 in0.0 mm 0.00 in0.0 mm
05:50 AM 51.6°F10.9°C 44.6°F7.0°C 77% 2.0 mph W3.2 kmh W 3.0 mph4.8 kmh 29.77 in1008.1 mb 0.00 in0.0 mm 0.00 in0.0 mm 0.00 in0.0 mm
05:55 AM 51.5°F10.8°C 44.5°F6.9°C 77% 2.0 mph W3.2 kmh W 2.0 mph3.2 kmh 29.77 in1008.1 mb 0.00 in0.0 mm 0.00 in0.0 mm 0.00 in0.0 mm
06:00 AM 51.4°F10.8°C 45.1°F7.3°C 79% 1.0 mph W1.6 kmh W 2.0 mph3.2 kmh 29.78 in1008.5 mb 0.00 in0.0 mm 0.00 in0.0 mm 0.00 in0.0 mm
06:05 AM 51.4°F10.8°C 45.1°F7.3°C 79% 1.0 mph W1.6 kmh W 3.0 mph4.8 kmh 29.78 in1008.5 mb 0.00 in0.0 mm 0.00 in0.0 mm 0.00 in0.0 mm
06:10 AM 51.3°F10.7°C 45.4°F7.4°C 80% 1.0 mph W1.6 kmh W 2.0 mph3.2 kmh 29.78 in1008.5 mb 0.00 in0.0 mm 0.00 in0.0 mm 0.00 in0.0 mm
06:15 AM 51.3°F10.7°C 45.7°F7.6°C 81% 2.0 mph W3.2 kmh W 3.0 mph4.8 kmh 29.78 in1008.5 mb 0.00 in0.0 mm 0.00 in0.0 mm 0.00 in0.0 mm
06:20 AM 51.3°F10.7°C 45.7°F7.6°C 81% Calm Calm 3.0 mph4.8 kmh 29.78 in1008.5 mb 0.00 in0.0 mm 0.00 in0.0 mm 0.00 in0.0 mm
06:25 AM 51.3°F10.7°C 45.7°F7.6°C 81% Calm Calm -- 29.78 in1008.5 mb 0.00 in0.0 mm 0.00 in0.0 mm 0.00 in0.0 mm
06:30 AM 51.5°F10.8°C 45.9°F7.7°C 81% Calm Calm -- 29.78 in1008.5 mb 0.00 in0.0 mm 0.00 in0.0 mm 0.00 in0.0 mm
06:35 AM 51.6°F10.9°C 46.3°F7.9°C 82% Calm Calm 1.0 mph1.6 kmh 29.78 in1008.5 mb 0.00 in0.0 mm 0.00 in0.0 mm 0.00 in0.0 mm
06:40 AM 52.0°F11.1°C 47.0°F8.3°C 83% 2.0 mph WSW3.2 kmh WSW 2.0 mph3.2 kmh 29.78 in1008.5 mb 0.00 in0.0 mm 0.00 in0.0 mm 0.00 in0.0 mm
06:45 AM 52.4°F11.3°C 47.4°F8.6°C 83% Calm Calm 2.0 mph3.2 kmh 29.78 in1008.5 mb 0.00 in0.0 mm 0.00 in0.0 mm 0.00 in0.0 mm
06:50 AM 52.8°F11.6°C 47.8°F8.8°C 83% Calm Calm 2.0 mph3.2 kmh 29.79 in1008.8 mb 0.00 in0.0 mm 0.00 in0.0 mm 0.00 in0.0 mm
06:55 AM 53.2°F11.8°C 47.9°F8.8°C 82% Calm Calm -- 29.79 in1008.8 mb 0.00 in0.0 mm 0.00 in0.0 mm 0.00 in0.0 mm
07:00 AM 53.6°F12.0°C 47.6°F8.7°C 80% 1.0 mph WSW1.6 kmh WSW 3.0 mph4.8 kmh 29.78 in1008.5 mb 0.00 in0.0 mm 0.00 in0.0 mm 0.00 in0.0 mm
07:05 AM 53.9°F12.2°C 47.9°F8.8°C 80% 2.0 mph WSW3.2 kmh WSW 3.0 mph4.8 kmh 29.78 in1008.5 mb 0.00 in0.0 mm 0.00 in0.0 mm 0.00 in0.0 mm
07:10 AM 54.4°F12.4°C 48.0°F8.9°C 79% 1.0 mph WSW1.6 kmh WSW 2.0 mph3.2 kmh 29.78 in1008.5 mb 0.00 in0.0 mm 0.00 in0.0 mm 0.00 in0.0 mm
07:15 AM 54.8°F12.7°C 47.7°F8.7°C 77% 1.0 mph WSW1.6 kmh WSW 3.0 mph4.8 kmh 29.78 in1008.5 mb 0.00 in0.0 mm 0.00 in0.0 mm 0.00 in0.0 mm
07:20 AM 55.5°F13.1°C 47.7°F8.7°C 75% 1.0 mph WSW1.6 kmh WSW 3.0 mph4.8 kmh 29.78 in1008.5 mb 0.00 in0.0 mm 0.00 in0.0 mm 0.00 in0.0 mm
07:25 AM 56.0°F13.3°C 46.4°F8.0°C 70% 3.0 mph WSW4.8 kmh WSW 5.0 mph8.0 kmh 29.78 in1008.5 mb 0.00 in0.0 mm 0.00 in0.0 mm 0.00 in0.0 mm
07:30 AM 56.3°F13.5°C 47.0°F8.3°C 71% 3.0 mph WSW4.8 kmh WSW 5.0 mph8.0 kmh 29.78 in1008.5 mb 0.00 in0.0 mm 0.00 in0.0 mm 0.00 in0.0 mm
07:35 AM 56.7°F13.7°C 46.7°F8.2°C 69% 2.0 mph WSW3.2 kmh WSW 5.0 mph8.0 kmh 29.78 in1008.5 mb 0.00 in0.0 mm 0.00 in0.0 mm 0.00 in0.0 mm
07:40 AM 57.1°F13.9°C 46.3°F7.9°C 67% 2.0 mph WSW3.2 kmh WSW 2.0 mph3.2 kmh 29.79 in1008.8 mb 0.00 in0.0 mm 0.00 in0.0 mm 0.00 in0.0 mm
07:45 AM 57.3°F14.1°C 45.7°F7.6°C 65% 3.0 mph WSW4.8 kmh WSW 3.0 mph4.8 kmh 29.79 in1008.8 mb 0.00 in0.0 mm 0.00 in0.0 mm 0.00 in0.0 mm
07:50 AM 57.4°F14.1°C 46.2°F7.9°C 66% 3.0 mph WSW4.8 kmh WSW 5.0 mph8.0 kmh 29.79 in1008.8 mb 0.00 in0.0 mm 0.00 in0.0 mm 0.00 in0.0 mm
07:55 AM 57.5°F14.2°C 46.2°F7.9°C 66% 2.0 mph WSW3.2 kmh WSW 3.0 mph4.8 kmh 29.79 in1008.8 mb 0.00 in0.0 mm 0.00 in0.0 mm 0.00 in0.0 mm
08:00 AM 57.8°F14.3°C 46.1°F7.8°C 65% 1.0 mph WSW1.6 kmh WSW 4.0 mph6.4 kmh 29.79 in1008.8 mb 0.00 in0.0 mm 0.00 in0.0 mm 0.00 in0.0 mm
08:05 AM 58.3°F14.6°C 45.4°F7.4°C 62% 4.0 mph WSW6.4 kmh WSW 4.0 mph6.4 kmh 29.79 in1008.8 mb 0.00 in0.0 mm 0.00 in0.0 mm 0.00 in0.0 mm
08:10 AM 58.6°F14.8°C 46.9°F8.3°C 65% 2.0 mph WSW3.2 kmh WSW 3.0 mph4.8 kmh 29.79 in1008.8 mb 0.00 in0.0 mm 0.00 in0.0 mm 0.00 in0.0 mm
08:15 AM 59.2°F15.1°C 47.5°F8.6°C 65% 3.0 mph WSW4.8 kmh WSW 3.0 mph4.8 kmh 29.79 in1008.8 mb 0.00 in0.0 mm 0.00 in0.0 mm 0.00 in0.0 mm
08:20 AM 59.7°F15.4°C 47.5°F8.6°C 64% 2.0 mph WSW3.2 kmh WSW 3.0 mph4.8 kmh 29.79 in1008.8 mb 0.00 in0.0 mm 0.00 in0.0 mm 0.00 in0.0 mm
08:25 AM 60.0°F15.6°C 46.5°F8.1°C 61% 5.0 mph WSW8.0 kmh WSW 5.0 mph8.0 kmh 29.79 in1008.8 mb 0.00 in0.0 mm 0.00 in0.0 mm 0.00 in0.0 mm
08:30 AM 60.7°F15.9°C 43.5°F6.4°C 53% 1.0 mph WSW1.6 kmh WSW 5.0 mph8.0 kmh 29.79 in1008.8 mb 0.00 in0.0 mm 0.00 in0.0 mm 0.00 in0.0 mm
08:35 AM 61.0°F16.1°C 41.7°F5.4°C 49% 5.0 mph WSW8.0 kmh WSW 5.0 mph8.0 kmh 29.79 in1008.8 mb 0.00 in0.0 mm 0.00 in0.0 mm 0.00 in0.0 mm
08:40 AM 61.3°F16.3°C 39.2°F4.0°C 44% 8.0 mph W12.9 kmh W 8.0 mph12.9 kmh 29.79 in1008.8 mb 0.00 in0.0 mm 0.00 in0.0 mm 0.00 in0.0 mm
08:45 AM 61.5°F16.4°C 39.4°F4.1°C 44% 7.0 mph WSW11.3 kmh WSW 10.0 mph16.1 kmh 29.78 in1008.5 mb 0.00 in0.0 mm 0.00 in0.0 mm 0.00 in0.0 mm
08:50 AM 61.5°F16.4°C 38.2°F3.4°C 42% 6.0 mph WSW9.7 kmh WSW 11.0 mph17.7 kmh 29.78 in1008.5 mb 0.00 in0.0 mm 0.00 in0.0 mm 0.00 in0.0 mm
08:55 AM 61.6°F16.4°C 37.7°F3.2°C 41% 9.0 mph WSW14.5 kmh WSW 9.0 mph14.5 kmh 29.78 in1008.5 mb 0.00 in0.0 mm 0.00 in0.0 mm 0.00 in0.0 mm
09:00 AM 61.7°F16.5°C 38.4°F3.6°C 42% 10.0 mph WSW16.1 kmh WSW 13.0 mph20.9 kmh 29.78 in1008.5 mb 0.00 in0.0 mm 0.00 in0.0 mm 0.00 in0.0 mm
09:05 AM 61.6°F16.4°C 37.7°F3.2°C 41% 4.0 mph WSW6.4 kmh WSW 13.0 mph20.9 kmh 29.78 in1008.5 mb 0.00 in0.0 mm 0.00 in0.0 mm 0.00 in0.0 mm
09:10 AM 62.5°F16.9°C 41.5°F5.3°C 46% 4.0 mph WSW6.4 kmh WSW 8.0 mph12.9 kmh 29.78 in1008.5 mb 0.00 in0.0 mm 0.00 in0.0 mm 0.00 in0.0 mm
09:15 AM 62.7°F17.1°C 36.8°F2.7°C 38% 7.0 mph WSW11.3 kmh WSW 10.0 mph16.1 kmh 29.78 in1008.5 mb 0.00 in0.0 mm 0.00 in0.0 mm 0.00 in0.0 mm
09:20 AM 62.8°F17.1°C 37.5°F3.1°C 39% 7.0 mph SW11.3 kmh SW 10.0 mph16.1 kmh 29.78 in1008.5 mb 0.00 in0.0 mm 0.00 in0.0 mm 0.00 in0.0 mm
09:25 AM 62.8°F17.1°C 38.1°F3.4°C 40% 3.0 mph WSW4.8 kmh WSW 6.0 mph9.7 kmh 29.78 in1008.5 mb 0.00 in0.0 mm 0.00 in0.0 mm 0.00 in0.0 mm
09:30 AM 62.9°F17.2°C 36.3°F2.4°C 37% 8.0 mph WSW12.9 kmh WSW 11.0 mph17.7 kmh 29.78 in1008.5 mb 0.00 in0.0 mm 0.00 in0.0 mm 0.00 in0.0 mm
09:35 AM 63.2°F17.3°C 39.1°F3.9°C 41% 4.0 mph WSW6.4 kmh WSW 11.0 mph17.7 kmh 29.79 in1008.8 mb 0.00 in0.0 mm 0.00 in0.0 mm 0.00 in0.0 mm
09:40 AM 63.6°F17.6°C 38.9°F3.8°C 40% 4.0 mph WSW6.4 kmh WSW 5.0 mph8.0 kmh 29.79 in1008.8 mb 0.00 in0.0 mm 0.00 in0.0 mm 0.00 in0.0 mm
09:45 AM 63.8°F17.7°C 39.7°F4.3°C 41% 5.0 mph SW8.0 kmh SW 9.0 mph14.5 kmh 29.79 in1008.8 mb 0.00 in0.0 mm 0.00 in0.0 mm 0.00 in0.0 mm
09:50 AM 64.0°F17.8°C 39.2°F4.0°C 40% 3.0 mph SW4.8 kmh SW 10.0 mph16.1 kmh 29.79 in1008.8 mb 0.00 in0.0 mm 0.00 in0.0 mm 0.00 in0.0 mm
09:55 AM 64.1°F17.8°C 38.0°F3.3°C 38% 5.0 mph SW8.0 kmh SW 7.0 mph11.3 kmh 29.79 in1008.8 mb 0.00 in0.0 mm 0.00 in0.0 mm 0.00 in0.0 mm
10:00 AM 64.4°F18.0°C 39.6°F4.2°C 40% 3.0 mph WSW4.8 kmh WSW 9.0 mph14.5 kmh 29.79 in1008.8 mb 0.00 in0.0 mm 0.00 in0.0 mm 0.00 in0.0 mm
10:05 AM 64.6°F18.1°C 39.8°F4.3°C 40% 8.0 mph SW12.9 kmh SW 9.0 mph14.5 kmh 29.79 in1008.8 mb 0.00 in0.0 mm 0.00 in0.0 mm 0.00 in0.0 mm
10:10 AM 64.9°F18.3°C 38.7°F3.7°C 38% 5.0 mph SW8.0 kmh SW 8.0 mph12.9 kmh 29.80 in1009.1 mb 0.00 in0.0 mm 0.00 in0.0 mm 0.00 in0.0 mm
10:15 AM 64.8°F18.2°C 39.3°F4.1°C 39% 2.0 mph WSW3.2 kmh WSW 9.0 mph14.5 kmh 29.79 in1008.8 mb 0.00 in0.0 mm 0.00 in0.0 mm 0.00 in0.0 mm
10:20 AM 65.3°F18.5°C 41.0°F5.0°C 41% 9.0 mph SSW14.5 kmh SSW 9.0 mph14.5 kmh 29.78 in1008.5 mb 0.00 in0.0 mm 0.00 in0.0 mm 0.00 in0.0 mm
10:25 AM 65.3°F18.5°C 38.4°F3.6°C 37% 4.0 mph SW6.4 kmh SW 7.0 mph11.3 kmh 29.78 in1008.5 mb 0.00 in0.0 mm 0.00 in0.0 mm 0.00 in0.0 mm
10:30 AM 65.8°F18.8°C 40.2°F4.6°C 39% 8.0 mph SW12.9 kmh SW 8.0 mph12.9 kmh 29.78 in1008.5 mb 0.00 in0.0 mm 0.00 in0.0 mm 0.00 in0.0 mm
10:35 AM 65.4°F18.6°C 37.8°F3.2°C 36% 5.0 mph SW8.0 kmh SW 10.0 mph16.1 kmh 29.78 in1008.5 mb 0.00 in0.0 mm 0.00 in0.0 mm 0.00 in0.0 mm
10:40 AM 65.6°F18.7°C 38.7°F3.7°C 37% 3.0 mph WSW4.8 kmh WSW 5.0 mph8.0 kmh 29.78 in1008.5 mb 0.00 in0.0 mm 0.00 in0.0 mm 0.00 in0.0 mm
10:45 AM 66.4°F19.1°C 39.4°F4.1°C 37% 3.0 mph SW4.8 kmh SW 7.0 mph11.3 kmh 29.78 in1008.5 mb 0.00 in0.0 mm 0.00 in0.0 mm 0.00 in0.0 mm
10:50 AM 65.1°F18.4°C 41.5°F5.3°C 42% 3.0 mph SW4.8 kmh SW 7.0 mph11.3 kmh 29.79 in1008.8 mb 0.00 in0.0 mm 0.00 in0.0 mm 0.00 in0.0 mm
10:55 AM 61.8°F16.6°C 40.3°F4.6°C 45% 1.0 mph S1.6 kmh S 1.0 mph1.6 kmh 29.79 in1008.8 mb 0.00 in0.0 mm 0.00 in0.0 mm 0.00 in0.0 mm
11:00 AM 63.0°F17.2°C 41.4°F5.2°C 45% 2.0 mph SE3.2 kmh SE 8.0 mph12.9 kmh 29.79 in1008.8 mb 0.00 in0.0 mm 0.00 in0.0 mm 0.00 in0.0 mm
11:05 AM 62.1°F16.7°C 41.1°F5.1°C 46% 2.0 mph ESE3.2 kmh ESE 8.0 mph12.9 kmh 29.79 in1008.8 mb 0.00 in0.0 mm 0.00 in0.0 mm 0.00 in0.0 mm
11:10 AM 62.0°F16.7°C 41.6°F5.3°C 47% 4.0 mph ENE6.4 kmh ENE 7.0 mph11.3 kmh 29.79 in1008.8 mb 0.00 in0.0 mm 0.00 in0.0 mm 0.00 in0.0 mm
11:15 AM 61.9°F16.6°C 38.6°F3.7°C 42% 4.0 mph E6.4 kmh E 8.0 mph12.9 kmh 29.79 in1008.8 mb 0.00 in0.0 mm 0.00 in0.0 mm 0.00 in0.0 mm
11:20 AM 61.7°F16.5°C 40.7°F4.8°C 46% 1.0 mph NNE1.6 kmh NNE 10.0 mph16.1 kmh 29.79 in1008.8 mb 0.00 in0.0 mm 0.00 in0.0 mm 0.00 in0.0 mm
11:25 AM 61.7°F16.5°C 42.4°F5.8°C 49% 6.0 mph NE9.7 kmh NE 6.0 mph9.7 kmh 29.78 in1008.5 mb 0.00 in0.0 mm 0.00 in0.0 mm 0.00 in0.0 mm
11:30 AM 60.7°F15.9°C 44.9°F7.2°C 56% 11.0 mph NNE17.7 kmh NNE 13.0 mph20.9 kmh 29.79 in1008.8 mb 0.00 in0.0 mm 0.00 in0.0 mm 0.00 in0.0 mm
11:35 AM 60.5°F15.8°C 45.7°F7.6°C 58% 10.0 mph NNE16.1 kmh NNE 13.0 mph20.9 kmh 29.79 in1008.8 mb 0.00 in0.0 mm 0.00 in0.0 mm 0.00 in0.0 mm
11:40 AM 61.1°F16.2°C 42.3°F5.7°C 50% 11.0 mph NNE17.7 kmh NNE 11.0 mph17.7 kmh 29.78 in1008.5 mb 0.00 in0.0 mm 0.00 in0.0 mm 0.00 in0.0 mm
11:45 AM 61.3°F16.3°C 43.5°F6.4°C 52% 6.0 mph NNE9.7 kmh NNE 11.0 mph17.7 kmh 29.78 in1008.5 mb 0.00 in0.0 mm 0.00 in0.0 mm 0.00 in0.0 mm
11:50 AM 61.2°F16.2°C 44.9°F7.2°C 55% 10.0 mph NNE16.1 kmh NNE 12.0 mph19.3 kmh 29.78 in1008.5 mb 0.00 in0.0 mm 0.00 in0.0 mm 0.00 in0.0 mm
11:55 AM 61.4°F16.3°C 44.1°F6.7°C 53% 10.0 mph NNE16.1 kmh NNE 12.0 mph19.3 kmh 29.78 in1008.5 mb 0.00 in0.0 mm 0.00 in0.0 mm 0.00 in0.0 mm
12:00 PM 61.7°F16.5°C 42.4°F5.8°C 49% 13.0 mph N20.9 kmh N 15.0 mph24.1 kmh 29.78 in1008.5 mb 0.00 in0.0 mm 0.00 in0.0 mm 0.00 in0.0 mm
12:05 PM 61.7°F16.5°C 42.9°F6.1°C 50% 11.0 mph NNE17.7 kmh NNE 15.0 mph24.1 kmh 29.78 in1008.5 mb 0.00 in0.0 mm 0.00 in0.0 mm 0.00 in0.0 mm
12:10 PM 61.3°F16.3°C 42.0°F5.6°C 49% 14.0 mph NNE22.5 kmh NNE 14.0 mph22.5 kmh 29.78 in1008.5 mb 0.00 in0.0 mm 0.00 in0.0 mm 0.00 in0.0 mm
12:15 PM 60.9°F16.1°C 45.6°F7.6°C 57% 10.0 mph NNE16.1 kmh NNE 14.0 mph22.5 kmh 29.78 in1008.5 mb 0.00 in0.0 mm 0.00 in0.0 mm 0.00 in0.0 mm
12:20 PM 61.0°F16.1°C 44.3°F6.8°C 54% 12.0 mph NE19.3 kmh NE 14.0 mph22.5 kmh 29.78 in1008.5 mb 0.00 in0.0 mm 0.00 in0.0 mm 0.00 in0.0 mm
12:25 PM 61.0°F16.1°C 45.2°F7.3°C 56% 11.0 mph NE17.7 kmh NE 11.0 mph17.7 kmh 29.78 in1008.5 mb 0.00 in0.0 mm 0.00 in0.0 mm 0.00 in0.0 mm
12:30 PM 61.3°F16.3°C 44.0°F6.7°C 53% 10.0 mph NE16.1 kmh NE 12.0 mph19.3 kmh 29.78 in1008.5 mb 0.00 in0.0 mm 0.00 in0.0 mm 0.00 in0.0 mm
12:35 PM 60.8°F16.0°C 46.0°F7.8°C 58% 10.0 mph NE16.1 kmh NE 12.0 mph19.3 kmh 29.78 in1008.5 mb 0.00 in0.0 mm 0.00 in0.0 mm 0.00 in0.0 mm
12:40 PM 60.7°F15.9°C 45.9°F7.7°C 58% 10.0 mph NE16.1 kmh NE 10.0 mph16.1 kmh 29.78 in1008.5 mb 0.00 in0.0 mm 0.00 in0.0 mm 0.00 in0.0 mm
12:45 PM 60.4°F15.8°C 46.5°F8.1°C 60% 7.0 mph NE11.3 kmh NE 10.0 mph16.1 kmh 29.78 in1008.5 mb 0.00 in0.0 mm 0.00 in0.0 mm 0.00 in0.0 mm
12:50 PM 60.4°F15.8°C 45.1°F7.3°C 57% 12.0 mph ENE19.3 kmh ENE 13.0 mph20.9 kmh 29.77 in1008.1 mb 0.00 in0.0 mm 0.00 in0.0 mm 0.00 in0.0 mm
12:55 PM 60.8°F16.0°C 46.4°F8.0°C 59% 12.0 mph NE19.3 kmh NE 12.0 mph19.3 kmh 29.78 in1008.5 mb 0.00 in0.0 mm 0.00 in0.0 mm 0.00 in0.0 mm
01:00 PM 61.2°F16.2°C 44.4°F6.9°C 54% 11.0 mph NE17.7 kmh NE 13.0 mph20.9 kmh 29.77 in1008.1 mb 0.00 in0.0 mm 0.00 in0.0 mm 0.00 in0.0 mm
01:05 PM 61.6°F16.4°C 43.8°F6.6°C 52% 7.0 mph NE11.3 kmh NE 13.0 mph20.9 kmh 29.77 in1008.1 mb 0.00 in0.0 mm 0.00 in0.0 mm 0.00 in0.0 mm
01:10 PM 61.7°F16.5°C 44.9°F7.2°C 54% 9.0 mph NE14.5 kmh NE 10.0 mph16.1 kmh 29.77 in1008.1 mb 0.00 in0.0 mm 0.00 in0.0 mm 0.00 in0.0 mm
01:15 PM 61.4°F16.3°C 45.1°F7.3°C 55% 4.0 mph NE6.4 kmh NE 11.0 mph17.7 kmh 29.78 in1008.5 mb 0.00 in0.0 mm 0.00 in0.0 mm 0.00 in0.0 mm
01:20 PM 61.7°F16.5°C 45.4°F7.4°C 55% 9.0 mph NE14.5 kmh NE 11.0 mph17.7 kmh 29.78 in1008.5 mb 0.00 in0.0 mm 0.00 in0.0 mm 0.00 in0.0 mm
01:25 PM 62.1°F16.7°C 46.2°F7.9°C 56% 9.0 mph NE14.5 kmh NE 10.0 mph16.1 kmh 29.77 in1008.1 mb 0.00 in0.0 mm 0.00 in0.0 mm 0.00 in0.0 mm
01:30 PM 62.2°F16.8°C 43.9°F6.6°C 51% 9.0 mph NE14.5 kmh NE 12.0 mph19.3 kmh 29.77 in1008.1 mb 0.00 in0.0 mm 0.00 in0.0 mm 0.00 in0.0 mm
01:35 PM 61.6°F16.4°C 44.3°F6.8°C 53% 7.0 mph NE11.3 kmh NE 12.0 mph19.3 kmh 29.77 in1008.1 mb 0.00 in0.0 mm 0.00 in0.0 mm 0.00 in0.0 mm
01:40 PM 62.3°F16.8°C 44.0°F6.7°C 51% 8.0 mph NE12.9 kmh NE 9.0 mph14.5 kmh 29.77 in1008.1 mb 0.00 in0.0 mm 0.00 in0.0 mm 0.00 in0.0 mm
01:45 PM 61.8°F16.6°C 46.0°F7.8°C 56% 12.0 mph NNE19.3 kmh NNE 13.0 mph20.9 kmh 29.77 in1008.1 mb 0.00 in0.0 mm 0.00 in0.0 mm 0.00 in0.0 mm
01:50 PM 61.7°F16.5°C 45.4°F7.4°C 55% 11.0 mph NE17.7 kmh NE 13.0 mph20.9 kmh 29.77 in1008.1 mb 0.00 in0.0 mm 0.00 in0.0 mm 0.00 in0.0 mm
01:55 PM 61.4°F16.3°C 46.1°F7.8°C 57% 7.0 mph NE11.3 kmh NE 9.0 mph14.5 kmh 29.77 in1008.1 mb 0.00 in0.0 mm 0.00 in0.0 mm 0.00 in0.0 mm
02:00 PM 61.5°F16.4°C 46.1°F7.8°C 57% 12.0 mph NNE19.3 kmh NNE 13.0 mph20.9 kmh 29.77 in1008.1 mb 0.00 in0.0 mm 0.00 in0.0 mm 0.00 in0.0 mm
02:05 PM 61.5°F16.4°C 44.2°F6.8°C 53% 4.0 mph NE6.4 kmh NE 13.0 mph20.9 kmh 29.77 in1008.1 mb 0.00 in0.0 mm 0.00 in0.0 mm 0.00 in0.0 mm
02:10 PM 61.8°F16.6°C 42.5°F5.8°C 49% 7.0 mph NE11.3 kmh NE 7.0 mph11.3 kmh 29.77 in1008.1 mb 0.00 in0.0 mm 0.00 in0.0 mm 0.00 in0.0 mm
02:15 PM 61.9°F16.6°C 43.6°F6.4°C 51% 9.0 mph NE14.5 kmh NE 16.0 mph25.7 kmh 29.77 in1008.1 mb 0.00 in0.0 mm 0.00 in0.0 mm 0.00 in0.0 mm
02:20 PM 61.7°F16.5°C 46.3°F7.9°C 57% 9.0 mph NE14.5 kmh NE 16.0 mph25.7 kmh 29.77 in1008.1 mb 0.00 in0.0 mm 0.00 in0.0 mm 0.00 in0.0 mm
02:25 PM 61.8°F16.6°C 46.4°F8.0°C 57% 9.0 mph NE14.5 kmh NE 10.0 mph16.1 kmh 29.77 in1008.1 mb 0.00 in0.0 mm 0.00 in0.0 mm 0.00 in0.0 mm
02:30 PM 61.0°F16.1°C 47.0°F8.3°C 60% 6.0 mph NE9.7 kmh NE 12.0 mph19.3 kmh 29.78 in1008.5 mb 0.00 in0.0 mm 0.00 in0.0 mm 0.00 in0.0 mm
02:35 PM 61.6°F16.4°C 44.3°F6.8°C 53% 6.0 mph NNE9.7 kmh NNE 12.0 mph19.3 kmh 29.78 in1008.5 mb 0.00 in0.0 mm 0.00 in0.0 mm 0.00 in0.0 mm
02:40 PM 61.9°F16.6°C 45.1°F7.3°C 54% 12.0 mph NE19.3 kmh NE 12.0 mph19.3 kmh 29.78 in1008.5 mb 0.00 in0.0 mm 0.00 in0.0 mm 0.00 in0.0 mm
02:45 PM 61.9°F16.6°C 45.1°F7.3°C 54% 6.0 mph NE9.7 kmh NE 14.0 mph22.5 kmh 29.78 in1008.5 mb 0.00 in0.0 mm 0.00 in0.0 mm 0.00 in0.0 mm
02:50 PM 62.0°F16.7°C 42.6°F5.9°C 49% 9.0 mph NE14.5 kmh NE 14.0 mph22.5 kmh 29.78 in1008.5 mb 0.00 in0.0 mm 0.00 in0.0 mm 0.00 in0.0 mm
02:55 PM 61.2°F16.2°C 47.2°F8.4°C 60% 6.0 mph NE9.7 kmh NE 9.0 mph14.5 kmh 29.78 in1008.5 mb 0.00 in0.0 mm 0.00 in0.0 mm 0.00 in0.0 mm
03:00 PM 61.4°F16.3°C 46.1°F7.8°C 57% 9.0 mph NE14.5 kmh NE 10.0 mph16.1 kmh 29.77 in1008.1 mb 0.00 in0.0 mm 0.00 in0.0 mm 0.00 in0.0 mm
03:05 PM 61.0°F16.1°C 45.7°F7.6°C 57% 6.0 mph NE9.7 kmh NE 10.0 mph16.1 kmh 29.77 in1008.1 mb 0.00 in0.0 mm 0.00 in0.0 mm 0.00 in0.0 mm
03:10 PM 61.4°F16.3°C 45.1°F7.3°C 55% 10.0 mph NNE16.1 kmh NNE 10.0 mph16.1 kmh 29.77 in1008.1 mb 0.00 in0.0 mm 0.00 in0.0 mm 0.00 in0.0 mm
03:15 PM 61.5°F16.4°C 46.6°F8.1°C 58% 10.0 mph NNE16.1 kmh NNE 12.0 mph19.3 kmh 29.77 in1008.1 mb 0.00 in0.0 mm 0.00 in0.0 mm 0.00 in0.0 mm
03:20 PM 62.8°F17.1°C 41.7°F5.4°C 46% 9.0 mph NE14.5 kmh NE 12.0 mph19.3 kmh 29.77 in1008.1 mb 0.00 in0.0 mm 0.00 in0.0 mm 0.00 in0.0 mm
03:25 PM 61.6°F16.4°C 46.7°F8.2°C 58% 7.0 mph NE11.3 kmh NE 7.0 mph11.3 kmh 29.77 in1008.1 mb 0.00 in0.0 mm 0.00 in0.0 mm 0.00 in0.0 mm
03:30 PM 61.5°F16.4°C 44.7°F7.1°C 54% 9.0 mph NNE14.5 kmh NNE 11.0 mph17.7 kmh 29.77 in1008.1 mb 0.00 in0.0 mm 0.00 in0.0 mm 0.00 in0.0 mm
03:35 PM 61.8°F16.6°C 44.5°F6.9°C 53% 9.0 mph NE14.5 kmh NE 11.0 mph17.7 kmh 29.77 in1008.1 mb 0.00 in0.0 mm 0.00 in0.0 mm 0.00 in0.0 mm
03:40 PM 61.6°F16.4°C 46.2°F7.9°C 57% 10.0 mph NE16.1 kmh NE 10.0 mph16.1 kmh 29.76 in1007.8 mb 0.00 in0.0 mm 0.00 in0.0 mm 0.00 in0.0 mm
03:45 PM 61.0°F16.1°C 47.0°F8.3°C 60% 11.0 mph NE17.7 kmh NE 12.0 mph19.3 kmh 29.76 in1007.8 mb 0.00 in0.0 mm 0.00 in0.0 mm 0.00 in0.0 mm
03:50 PM 60.5°F15.8°C 47.0°F8.3°C 61% 10.0 mph NE16.1 kmh NE 12.0 mph19.3 kmh 29.76 in1007.8 mb 0.00 in0.0 mm 0.00 in0.0 mm 0.00 in0.0 mm
03:55 PM 60.1°F15.6°C 48.3°F9.1°C 65% 9.0 mph NE14.5 kmh NE 10.0 mph16.1 kmh 29.77 in1008.1 mb 0.00 in0.0 mm 0.00 in0.0 mm 0.00 in0.0 mm
04:00 PM 61.0°F16.1°C 47.0°F8.3°C 60% 6.0 mph NE9.7 kmh NE 10.0 mph16.1 kmh 29.76 in1007.8 mb 0.00 in0.0 mm 0.00 in0.0 mm 0.00 in0.0 mm
04:05 PM 61.8°F16.6°C 44.5°F6.9°C 53% 9.0 mph NE14.5 kmh NE 10.0 mph16.1 kmh 29.77 in1008.1 mb 0.00 in0.0 mm 0.00 in0.0 mm 0.00 in0.0 mm
04:10 PM 61.4°F16.3°C 47.4°F8.6°C 60% 11.0 mph NE17.7 kmh NE 11.0 mph17.7 kmh 29.77 in1008.1 mb 0.00 in0.0 mm 0.00 in0.0 mm 0.00 in0.0 mm
04:15 PM 61.8°F16.6°C 45.0°F7.2°C 54% 5.0 mph NE8.0 kmh NE 11.0 mph17.7 kmh 29.77 in1008.1 mb 0.00 in0.0 mm 0.00 in0.0 mm 0.00 in0.0 mm
04:20 PM 62.1°F16.7°C 46.2°F7.9°C 56% 9.0 mph ENE14.5 kmh ENE 12.0 mph19.3 kmh 29.77 in1008.1 mb 0.00 in0.0 mm 0.00 in0.0 mm 0.00 in0.0 mm
04:25 PM 62.6°F17.0°C 43.2°F6.2°C 49% 9.0 mph E14.5 kmh E 11.0 mph17.7 kmh 29.77 in1008.1 mb 0.00 in0.0 mm 0.00 in0.0 mm 0.00 in0.0 mm
04:30 PM 62.5°F16.9°C 44.2°F6.8°C 51% 10.0 mph E16.1 kmh E 13.0 mph20.9 kmh 29.77 in1008.1 mb 0.00 in0.0 mm 0.00 in0.0 mm 0.00 in0.0 mm
04:35 PM 62.2°F16.8°C 44.4°F6.9°C 52% 9.0 mph ENE14.5 kmh ENE 13.0 mph20.9 kmh 29.77 in1008.1 mb 0.00 in0.0 mm 0.00 in0.0 mm 0.00 in0.0 mm
04:40 PM 62.3°F16.8°C 42.9°F6.1°C 49% 4.0 mph ENE6.4 kmh ENE 7.0 mph11.3 kmh 29.77 in1008.1 mb 0.00 in0.0 mm 0.00 in0.0 mm 0.00 in0.0 mm
04:45 PM 62.2°F16.8°C 43.9°F6.6°C 51% 5.0 mph ENE8.0 kmh ENE 8.0 mph12.9 kmh 29.77 in1008.1 mb 0.00 in0.0 mm 0.00 in0.0 mm 0.00 in0.0 mm
04:50 PM 62.1°F16.7°C 44.3°F6.8°C 52% 5.0 mph ENE8.0 kmh ENE 8.0 mph12.9 kmh 29.77 in1008.1 mb 0.00 in0.0 mm 0.00 in0.0 mm 0.00 in0.0 mm
04:55 PM 61.6°F16.4°C 45.8°F7.7°C 56% 7.0 mph ENE11.3 kmh ENE 7.0 mph11.3 kmh 29.78 in1008.5 mb 0.00 in0.0 mm 0.00 in0.0 mm 0.00 in0.0 mm
05:00 PM 60.8°F16.0°C 47.3°F8.5°C 61% 5.0 mph ENE8.0 kmh ENE 8.0 mph12.9 kmh 29.78 in1008.5 mb 0.00 in0.0 mm 0.00 in0.0 mm 0.00 in0.0 mm
05:05 PM 60.9°F16.1°C 46.5°F8.1°C 59% 4.0 mph ENE6.4 kmh ENE 8.0 mph12.9 kmh 29.78 in1008.5 mb 0.00 in0.0 mm 0.00 in0.0 mm 0.00 in0.0 mm
05:10 PM 61.1°F16.2°C 45.8°F7.7°C 57% 4.0 mph ENE6.4 kmh ENE 5.0 mph8.0 kmh 29.78 in1008.5 mb 0.00 in0.0 mm 0.00 in0.0 mm 0.00 in0.0 mm
05:15 PM 61.4°F16.3°C 47.4°F8.6°C 60% 3.0 mph ENE4.8 kmh ENE 6.0 mph9.7 kmh 29.78 in1008.5 mb 0.00 in0.0 mm 0.00 in0.0 mm 0.00 in0.0 mm
05:20 PM 61.4°F16.3°C 46.1°F7.8°C 57% 4.0 mph ENE6.4 kmh ENE 6.0 mph9.7 kmh 29.78 in1008.5 mb 0.00 in0.0 mm 0.00 in0.0 mm 0.00 in0.0 mm
05:25 PM 61.9°F16.6°C 46.5°F8.1°C 57% Calm Calm -- 29.78 in1008.5 mb 0.00 in0.0 mm 0.00 in0.0 mm 0.00 in0.0 mm
05:30 PM 61.8°F16.6°C 43.5°F6.4°C 51% 2.0 mph ENE3.2 kmh ENE 3.0 mph4.8 kmh 29.79 in1008.8 mb 0.00 in0.0 mm 0.00 in0.0 mm 0.00 in0.0 mm
05:35 PM 61.9°F16.6°C 46.1°F7.8°C 56% 3.0 mph ENE4.8 kmh ENE 4.0 mph6.4 kmh 29.79 in1008.8 mb 0.00 in0.0 mm 0.00 in0.0 mm 0.00 in0.0 mm
05:40 PM 62.0°F16.7°C 44.7°F7.1°C 53% 2.0 mph ENE3.2 kmh ENE 3.0 mph4.8 kmh 29.79 in1008.8 mb 0.00 in0.0 mm 0.00 in0.0 mm 0.00 in0.0 mm
05:45 PM 62.1°F16.7°C 45.3°F7.4°C 54% 2.0 mph ENE3.2 kmh ENE 3.0 mph4.8 kmh 29.79 in1008.8 mb 0.00 in0.0 mm 0.00 in0.0 mm 0.00 in0.0 mm
05:50 PM 61.9°F16.6°C 45.6°F7.6°C 55% 3.0 mph ENE4.8 kmh ENE 4.0 mph6.4 kmh 29.79 in1008.8 mb 0.00 in0.0 mm 0.00 in0.0 mm 0.00 in0.0 mm
05:55 PM 61.5°F16.4°C 46.6°F8.1°C 58% 2.0 mph ENE3.2 kmh ENE 3.0 mph4.8 kmh 29.79 in1008.8 mb 0.00 in0.0 mm 0.00 in0.0 mm 0.00 in0.0 mm
06:00 PM 61.4°F16.3°C 47.4°F8.6°C 60% 3.0 mph ENE4.8 kmh ENE 4.0 mph6.4 kmh 29.80 in1009.1 mb 0.00 in0.0 mm 0.00 in0.0 mm 0.00 in0.0 mm
06:05 PM 60.9°F16.1°C 48.2°F9.0°C 63% 4.0 mph NE6.4 kmh NE 5.0 mph8.0 kmh 29.80 in1009.1 mb 0.00 in0.0 mm 0.00 in0.0 mm 0.00 in0.0 mm
06:10 PM 60.7°F15.9°C 48.5°F9.2°C 64% 3.0 mph NNE4.8 kmh NNE 4.0 mph6.4 kmh 29.80 in1009.1 mb 0.00 in0.0 mm 0.00 in0.0 mm 0.00 in0.0 mm
06:15 PM 60.3°F15.7°C 47.2°F8.4°C 62% 5.0 mph NNE8.0 kmh NNE 6.0 mph9.7 kmh 29.81 in1009.5 mb 0.00 in0.0 mm 0.00 in0.0 mm 0.00 in0.0 mm
06:20 PM 60.0°F15.6°C 49.0°F9.4°C 67% 5.0 mph NNE8.0 kmh NNE 6.0 mph9.7 kmh 29.81 in1009.5 mb 0.00 in0.0 mm 0.00 in0.0 mm 0.00 in0.0 mm
06:25 PM 59.5°F15.3°C 49.3°F9.6°C 69% 4.0 mph NNE6.4 kmh NNE 5.0 mph8.0 kmh 29.81 in1009.5 mb 0.00 in0.0 mm 0.00 in0.0 mm 0.00 in0.0 mm
06:30 PM 59.3°F15.2°C 49.5°F9.7°C 70% 4.0 mph NNE6.4 kmh NNE 5.0 mph8.0 kmh 29.81 in1009.5 mb 0.00 in0.0 mm 0.00 in0.0 mm 0.00 in0.0 mm
06:35 PM 59.1°F15.1°C 49.0°F9.4°C 69% 5.0 mph NNE8.0 kmh NNE 7.0 mph11.3 kmh 29.81 in1009.5 mb 0.00 in0.0 mm 0.00 in0.0 mm 0.00 in0.0 mm
06:40 PM 59.2°F15.1°C 48.3°F9.1°C 67% 4.0 mph NNE6.4 kmh NNE 4.0 mph6.4 kmh 29.81 in1009.5 mb 0.00 in0.0 mm 0.00 in0.0 mm 0.00 in0.0 mm
06:45 PM 59.3°F15.2°C 47.6°F8.7°C 65% 3.0 mph NNE4.8 kmh NNE 7.0 mph11.3 kmh 29.82 in1009.8 mb 0.00 in0.0 mm 0.00 in0.0 mm 0.00 in0.0 mm
06:50 PM 59.4°F15.2°C 47.7°F8.7°C 65% 2.0 mph NNE3.2 kmh NNE 7.0 mph11.3 kmh 29.82 in1009.8 mb 0.00 in0.0 mm 0.00 in0.0 mm 0.00 in0.0 mm
06:55 PM 59.3°F15.2°C 47.6°F8.7°C 65% 3.0 mph NNE4.8 kmh NNE 3.0 mph4.8 kmh 29.82 in1009.8 mb 0.00 in0.0 mm 0.00 in0.0 mm 0.00 in0.0 mm
07:00 PM 59.3°F15.2°C 47.1°F8.4°C 64% 3.0 mph NNE4.8 kmh NNE 4.0 mph6.4 kmh 29.82 in1009.8 mb 0.00 in0.0 mm 0.00 in0.0 mm 0.00 in0.0 mm
07:05 PM 59.3°F15.2°C 46.7°F8.2°C 63% 1.0 mph NNE1.6 kmh NNE 4.0 mph6.4 kmh 29.82 in1009.8 mb 0.00 in0.0 mm 0.00 in0.0 mm 0.00 in0.0 mm
07:10 PM 59.3°F15.2°C 47.6°F8.7°C 65% 1.0 mph NNE1.6 kmh NNE 2.0 mph3.2 kmh 29.82 in1009.8 mb 0.00 in0.0 mm 0.00 in0.0 mm 0.00 in0.0 mm
07:15 PM 59.3°F15.2°C 49.1°F9.5°C 69% 2.0 mph NNE3.2 kmh NNE 2.0 mph3.2 kmh 29.83 in1010.2 mb 0.00 in0.0 mm 0.00 in0.0 mm 0.00 in0.0 mm
07:20 PM 59.0°F15.0°C 48.9°F9.4°C 69% 1.0 mph NNE1.6 kmh NNE 2.0 mph3.2 kmh 29.83 in1010.2 mb 0.00 in0.0 mm 0.00 in0.0 mm 0.00 in0.0 mm
07:25 PM 58.8°F14.9°C 48.3°F9.1°C 68% 1.0 mph NNE1.6 kmh NNE 2.0 mph3.2 kmh 29.83 in1010.2 mb 0.00 in0.0 mm 0.00 in0.0 mm 0.00 in0.0 mm
07:30 PM 58.6°F14.8°C 48.5°F9.2°C 69% Calm Calm 2.0 mph3.2 kmh 29.83 in1010.2 mb 0.00 in0.0 mm 0.00 in0.0 mm 0.00 in0.0 mm
07:35 PM 58.5°F14.7°C 48.0°F8.9°C 68% Calm Calm 2.0 mph3.2 kmh 29.83 in1010.2 mb 0.00 in0.0 mm 0.00 in0.0 mm 0.00 in0.0 mm
07:40 PM 58.3°F14.6°C 47.8°F8.8°C 68% Calm Calm 1.0 mph1.6 kmh 29.83 in1010.2 mb 0.00 in0.0 mm 0.00 in0.0 mm 0.00 in0.0 mm
07:45 PM 58.2°F14.6°C 48.1°F8.9°C 69% Calm Calm 1.0 mph1.6 kmh 29.84 in1010.5 mb 0.00 in0.0 mm 0.00 in0.0 mm 0.00 in0.0 mm
07:50 PM 58.1°F14.5°C 47.6°F8.7°C 68% Calm Calm 1.0 mph1.6 kmh 29.84 in1010.5 mb 0.00 in0.0 mm 0.00 in0.0 mm 0.00 in0.0 mm
07:55 PM 57.9°F14.4°C 47.0°F8.3°C 67% Calm Calm -- 29.84 in1010.5 mb 0.00 in0.0 mm 0.00 in0.0 mm 0.00 in0.0 mm
08:00 PM 57.8°F14.3°C 46.9°F8.3°C 67% Calm Calm -- 29.85 in1010.8 mb 0.00 in0.0 mm 0.00 in0.0 mm 0.00 in0.0 mm
08:05 PM 57.8°F14.3°C 47.7°F8.7°C 69% Calm Calm -- 29.85 in1010.8 mb 0.00 in0.0 mm 0.00 in0.0 mm 0.00 in0.0 mm
08:10 PM 57.6°F14.2°C 47.5°F8.6°C 69% Calm Calm -- 29.85 in1010.8 mb 0.00 in0.0 mm 0.00 in0.0 mm 0.00 in0.0 mm
08:15 PM 57.5°F14.2°C 47.0°F8.3°C 68% Calm Calm -- 29.86 in1011.2 mb 0.00 in0.0 mm 0.00 in0.0 mm 0.00 in0.0 mm
08:20 PM 57.3°F14.1°C 47.2°F8.4°C 69% Calm Calm -- 29.86 in1011.2 mb 0.00 in0.0 mm 0.00 in0.0 mm 0.00 in0.0 mm
08:25 PM 57.2°F14.0°C 47.1°F8.4°C 69% Calm Calm -- 29.86 in1011.2 mb 0.00 in0.0 mm 0.00 in0.0 mm 0.00 in0.0 mm
08:30 PM 57.2°F14.0°C 48.3°F9.1°C 72% Calm Calm -- 29.86 in1011.2 mb 0.00 in0.0 mm 0.00 in0.0 mm 0.00 in0.0 mm
08:35 PM 57.1°F13.9°C 47.4°F8.6°C 70% Calm Calm -- 29.86 in1011.2 mb 0.00 in0.0 mm 0.00 in0.0 mm 0.00 in0.0 mm
08:40 PM 57.0°F13.9°C 46.9°F8.3°C 69% Calm Calm -- 29.87 in1011.5 mb 0.00 in0.0 mm 0.00 in0.0 mm 0.00 in0.0 mm
08:45 PM 56.9°F13.8°C 47.6°F8.7°C 71% Calm Calm -- 29.86 in1011.2 mb 0.00 in0.0 mm 0.00 in0.0 mm 0.00 in0.0 mm
08:50 PM 56.9°F13.8°C 48.0°F8.9°C 72% Calm Calm -- 29.86 in1011.2 mb 0.00 in0.0 mm 0.00 in0.0 mm 0.00 in0.0 mm
08:55 PM 56.7°F13.7°C 46.7°F8.2°C 69% Calm Calm -- 29.86 in1011.2 mb 0.00 in0.0 mm 0.00 in0.0 mm 0.00 in0.0 mm
09:00 PM 56.7°F13.7°C 47.4°F8.6°C 71% Calm Calm -- 29.86 in1011.2 mb 0.00 in0.0 mm 0.00 in0.0 mm 0.00 in0.0 mm
09:05 PM 56.8°F13.8°C 49.0°F9.4°C 75% Calm Calm -- 29.87 in1011.5 mb 0.00 in0.0 mm 0.00 in0.0 mm 0.00 in0.0 mm
09:10 PM 56.6°F13.7°C 48.1°F8.9°C 73% Calm Calm -- 29.87 in1011.5 mb 0.00 in0.0 mm 0.00 in0.0 mm 0.00 in0.0 mm
09:15 PM 56.5°F13.6°C 48.7°F9.3°C 75% Calm Calm -- 29.87 in1011.5 mb 0.00 in0.0 mm 0.00 in0.0 mm 0.00 in0.0 mm
09:20 PM 56.4°F13.6°C 49.6°F9.8°C 78% Calm Calm -- 29.87 in1011.5 mb 0.00 in0.0 mm 0.00 in0.0 mm 0.00 in0.0 mm
09:25 PM 56.2°F13.4°C 49.8°F9.9°C 79% Calm Calm -- 29.87 in1011.5 mb 0.00 in0.0 mm 0.00 in0.0 mm 0.00 in0.0 mm
09:30 PM 56.0°F13.3°C 49.6°F9.8°C 79% Calm Calm -- 29.88 in1011.9 mb 0.00 in0.0 mm 0.00 in0.0 mm 0.00 in0.0 mm
09:35 PM 55.9°F13.3°C 49.8°F9.9°C 80% Calm Calm -- 29.88 in1011.9 mb 0.00 in0.0 mm 0.00 in0.0 mm 0.00 in0.0 mm
09:40 PM 55.6°F13.1°C 49.5°F9.7°C 80% 2.0 mph NNE3.2 kmh NNE 2.0 mph3.2 kmh 29.89 in1012.2 mb 0.00 in0.0 mm 0.00 in0.0 mm 0.00 in0.0 mm
09:45 PM 55.4°F13.0°C 49.7°F9.8°C 81% 2.0 mph NNE3.2 kmh NNE 3.0 mph4.8 kmh 29.89 in1012.2 mb 0.00 in0.0 mm 0.00 in0.0 mm 0.00 in0.0 mm
09:50 PM 55.2°F12.9°C 49.5°F9.7°C 81% Calm Calm 3.0 mph4.8 kmh 29.89 in1012.2 mb 0.00 in0.0 mm 0.00 in0.0 mm 0.00 in0.0 mm
09:55 PM 55.0°F12.8°C 49.3°F9.6°C 81% 2.0 mph NNE3.2 kmh NNE 3.0 mph4.8 kmh 29.89 in1012.2 mb 0.00 in0.0 mm 0.00 in0.0 mm 0.00 in0.0 mm
10:00 PM 55.0°F12.8°C 49.9°F9.9°C 83% 2.0 mph NNE3.2 kmh NNE 3.0 mph4.8 kmh 29.89 in1012.2 mb 0.00 in0.0 mm 0.00 in0.0 mm 0.00 in0.0 mm
10:05 PM 54.8°F12.7°C 49.4°F9.7°C 82% Calm Calm 3.0 mph4.8 kmh 29.90 in1012.5 mb 0.00 in0.0 mm 0.00 in0.0 mm 0.00 in0.0 mm
10:10 PM 54.6°F12.6°C 49.2°F9.6°C 82% Calm Calm -- 29.90 in1012.5 mb 0.00 in0.0 mm 0.00 in0.0 mm 0.00 in0.0 mm
10:15 PM 54.4°F12.4°C 49.0°F9.4°C 82% Calm Calm -- 29.90 in1012.5 mb 0.00 in0.0 mm 0.00 in0.0 mm 0.00 in0.0 mm
10:20 PM 54.2°F12.3°C 48.5°F9.2°C 81% Calm Calm -- 29.90 in1012.5 mb 0.00 in0.0 mm 0.00 in0.0 mm 0.00 in0.0 mm
10:25 PM 54.2°F12.3°C 48.5°F9.2°C 81% Calm Calm -- 29.91 in1012.9 mb 0.00 in0.0 mm 0.00 in0.0 mm 0.00 in0.0 mm
10:30 PM 54.1°F12.3°C 49.1°F9.5°C 83% 3.0 mph NNE4.8 kmh NNE 4.0 mph6.4 kmh 29.91 in1012.9 mb 0.00 in0.0 mm 0.00 in0.0 mm 0.00 in0.0 mm
10:35 PM 54.0°F12.2°C 47.6°F8.7°C 79% 1.0 mph NNE1.6 kmh NNE 5.0 mph8.0 kmh 29.91 in1012.9 mb 0.00 in0.0 mm 0.00 in0.0 mm 0.00 in0.0 mm
10:40 PM 54.0°F12.2°C 47.0°F8.3°C 77% Calm Calm 2.0 mph3.2 kmh 29.92 in1013.2 mb 0.00 in0.0 mm 0.00 in0.0 mm 0.00 in0.0 mm
10:45 PM 54.1°F12.3°C 47.4°F8.6°C 78% Calm Calm 3.0 mph4.8 kmh 29.92 in1013.2 mb 0.00 in0.0 mm 0.00 in0.0 mm 0.00 in0.0 mm
10:50 PM 54.1°F12.3°C 47.7°F8.7°C 79% 1.0 mph NNE1.6 kmh NNE 4.0 mph6.4 kmh 29.92 in1013.2 mb 0.00 in0.0 mm 0.00 in0.0 mm 0.00 in0.0 mm
10:55 PM 54.0°F12.2°C 47.3°F8.5°C 78% Calm Calm -- 29.92 in1013.2 mb 0.00 in0.0 mm 0.00 in0.0 mm 0.00 in0.0 mm
11:00 PM 54.0°F12.2°C 47.0°F8.3°C 77% Calm Calm -- 29.92 in1013.2 mb 0.00 in0.0 mm 0.00 in0.0 mm 0.00 in0.0 mm
11:05 PM 54.1°F12.3°C 47.4°F8.6°C 78% Calm Calm 2.0 mph3.2 kmh 29.92 in1013.2 mb 0.00 in0.0 mm 0.00 in0.0 mm 0.00 in0.0 mm
11:10 PM 54.1°F12.3°C 47.4°F8.6°C 78% 2.0 mph NNE3.2 kmh NNE 2.0 mph3.2 kmh 29.92 in1013.2 mb 0.00 in0.0 mm 0.00 in0.0 mm 0.00 in0.0 mm
11:15 PM 54.1°F12.3°C 47.4°F8.6°C 78% 2.0 mph NNE3.2 kmh NNE 4.0 mph6.4 kmh 29.92 in1013.2 mb 0.00 in0.0 mm 0.00 in0.0 mm 0.00 in0.0 mm
11:20 PM 54.0°F12.2°C 47.6°F8.7°C 79% Calm Calm 4.0 mph6.4 kmh 29.92 in1013.2 mb 0.00 in0.0 mm 0.00 in0.0 mm 0.00 in0.0 mm
11:25 PM 53.9°F12.2°C 47.6°F8.7°C 79% Calm Calm -- 29.92 in1013.2 mb 0.00 in0.0 mm 0.00 in0.0 mm 0.00 in0.0 mm
11:30 PM 53.9°F12.2°C 47.9°F8.8°C 80% Calm Calm -- 29.92 in1013.2 mb 0.00 in0.0 mm 0.00 in0.0 mm 0.00 in0.0 mm
11:35 PM 53.8°F12.1°C 47.5°F8.6°C 79% 2.0 mph NNE3.2 kmh NNE 3.0 mph4.8 kmh 29.93 in1013.5 mb 0.00 in0.0 mm 0.00 in0.0 mm 0.00 in0.0 mm
11:40 PM 53.7°F12.1°C 47.4°F8.6°C 79% Calm Calm 2.0 mph3.2 kmh 29.93 in1013.5 mb 0.00 in0.0 mm 0.00 in0.0 mm 0.00 in0.0 mm
11:45 PM 53.6°F12.0°C 46.6°F8.1°C 77% 1.0 mph NNE1.6 kmh NNE 2.0 mph3.2 kmh 29.93 in1013.5 mb 0.00 in0.0 mm 0.00 in0.0 mm 0.00 in0.0 mm
11:50 PM 53.6°F12.0°C 47.3°F8.5°C 79% 2.0 mph NNE3.2 kmh NNE 2.0 mph3.2 kmh 29.93 in1013.5 mb 0.00 in0.0 mm 0.00 in0.0 mm 0.00 in0.0 mm
11:55 PM 53.7°F12.1°C 47.7°F8.7°C 80% Calm Calm 1.0 mph1.6 kmh 29.93 in1013.5 mb 0.00 in0.0 mm 0.00 in0.0 mm 0.00 in0.0 mm